sensor_id;sensor_type;location;lat;lon;timestamp;pressure;altitude;pressure_sealevel;temperature;humidity
56630;BME280;42502;40.732;-74.254;2023-02-14T00:00:32;99237.44;;;19.91;33.68
56630;BME280;42502;40.732;-74.254;2023-02-14T00:02:35;99244.25;;;19.90;33.61
56630;BME280;42502;40.732;-74.254;2023-02-14T00:04:36;99243.81;;;19.88;33.43
56630;BME280;42502;40.732;-74.254;2023-02-14T00:06:42;99250.22;;;19.88;33.45
56630;BME280;42502;40.732;-74.254;2023-02-14T00:08:43;99243.81;;;19.84;33.75
56630;BME280;42502;40.732;-74.254;2023-02-14T00:10:44;99251.81;;;19.86;33.42
56630;BME280;42502;40.732;-74.254;2023-02-14T00:12:48;99244.97;;;19.83;33.45
56630;BME280;42502;40.732;-74.254;2023-02-14T00:14:49;99246.97;;;19.83;33.61
56630;BME280;42502;40.732;-74.254;2023-02-14T00:17:08;99242.94;;;19.80;33.40
56630;BME280;42502;40.732;-74.254;2023-02-14T00:19:11;99248.47;;;19.77;33.73
56630;BME280;42502;40.732;-74.254;2023-02-14T00:21:13;99260.97;;;19.83;33.72
56630;BME280;42502;40.732;-74.254;2023-02-14T00:23:14;99265.78;;;19.82;33.72
56630;BME280;42502;40.732;-74.254;2023-02-14T00:25:15;99255.34;;;19.79;33.67
56630;BME280;42502;40.732;-74.254;2023-02-14T00:27:16;99264.53;;;19.80;33.69
56630;BME280;42502;40.732;-74.254;2023-02-14T00:29:20;99265.28;;;19.77;33.60
56630;BME280;42502;40.732;-74.254;2023-02-14T00:31:21;99275.34;;;19.78;33.72
56630;BME280;42502;40.732;-74.254;2023-02-14T00:33:22;99278.13;;;19.78;33.74
56630;BME280;42502;40.732;-74.254;2023-02-14T00:35:25;99282.09;;;19.77;33.58
56630;BME280;42502;40.732;-74.254;2023-02-14T00:37:26;99273.25;;;19.75;33.93
56630;BME280;42502;40.732;-74.254;2023-02-14T00:39:27;99291.69;;;19.76;33.58
56630;BME280;42502;40.732;-74.254;2023-02-14T00:41:28;99275.97;;;19.67;33.94
56630;BME280;42502;40.732;-74.254;2023-02-14T00:43:29;99292.09;;;19.74;33.45
56630;BME280;42502;40.732;-74.254;2023-02-14T00:45:30;99284.81;;;19.69;33.76
56630;BME280;42502;40.732;-74.254;2023-02-14T00:47:31;99298.88;;;19.73;33.76
56630;BME280;42502;40.732;-74.254;2023-02-14T00:49:32;99277.56;;;19.65;33.90
56630;BME280;42502;40.732;-74.254;2023-02-14T00:51:33;99295.66;;;19.71;33.91
56630;BME280;42502;40.732;-74.254;2023-02-14T00:53:34;99304.84;;;19.71;33.66
56630;BME280;42502;40.732;-74.254;2023-02-14T00:55:35;99306.84;;;19.71;33.75
56630;BME280;42502;40.732;-74.254;2023-02-14T00:57:36;99289.53;;;19.62;33.86
56630;BME280;42502;40.732;-74.254;2023-02-14T00:59:37;99300.38;;;19.63;33.79
56630;BME280;42502;40.732;-74.254;2023-02-14T01:01:41;99300.38;;;19.63;33.73
56630;BME280;42502;40.732;-74.254;2023-02-14T01:03:43;99303.19;;;19.67;33.75
56630;BME280;42502;40.732;-74.254;2023-02-14T01:05:46;99312.41;;;19.67;33.67
56630;BME280;42502;40.732;-74.254;2023-02-14T01:07:47;99304.38;;;19.66;33.75
56630;BME280;42502;40.732;-74.254;2023-02-14T01:09:48;99306.72;;;19.60;33.87
56630;BME280;42502;40.732;-74.254;2023-02-14T01:11:48;99314.78;;;19.65;33.78
56630;BME280;42502;40.732;-74.254;2023-02-14T01:13:50;99314.00;;;19.65;33.72
56630;BME280;42502;40.732;-74.254;2023-02-14T01:15:51;99315.97;;;19.64;33.62
56630;BME280;42502;40.732;-74.254;2023-02-14T01:17:52;99311.56;;;19.63;33.80
56630;BME280;42502;40.732;-74.254;2023-02-14T01:19:53;99317.16;;;19.63;33.64
56630;BME280;42502;40.732;-74.254;2023-02-14T01:21:54;99307.94;;;19.63;33.85
56630;BME280;42502;40.732;-74.254;2023-02-14T01:23:58;99298.63;;;19.55;33.90
56630;BME280;42502;40.732;-74.254;2023-02-14T01:26:04;99316.72;;;19.61;33.70
56630;BME280;42502;40.732;-74.254;2023-02-14T01:28:08;99321.16;;;19.62;33.72
56630;BME280;42502;40.732;-74.254;2023-02-14T01:30:09;99321.91;;;19.59;33.71
56630;BME280;42502;40.732;-74.254;2023-02-14T01:32:10;99314.31;;;19.60;33.94
56630;BME280;42502;40.732;-74.254;2023-02-14T01:34:11;99317.09;;;19.60;33.93
56630;BME280;42502;40.732;-74.254;2023-02-14T01:38:17;99328.69;;;19.58;33.84
56630;BME280;42502;40.732;-74.254;2023-02-14T01:40:18;99321.03;;;19.55;33.78
56630;BME280;42502;40.732;-74.254;2023-02-14T01:42:19;99314.16;;;19.49;34.01
56630;BME280;42502;40.732;-74.254;2023-02-14T01:46:35;99325.06;;;19.54;33.74
56630;BME280;42502;40.732;-74.254;2023-02-14T01:48:36;99327.41;;;19.52;34.06
56630;BME280;42502;40.732;-74.254;2023-02-14T01:50:41;99341.88;;;19.54;34.08
56630;BME280;42502;40.732;-74.254;2023-02-14T01:52:53;99309.16;;;19.31;33.79
56630;BME280;42502;40.732;-74.254;2023-02-14T01:54:58;99346.59;;;19.50;34.03
56630;BME280;42502;40.732;-74.254;2023-02-14T01:57:04;99353.38;;;19.49;33.81
56630;BME280;42502;40.732;-74.254;2023-02-14T01:59:11;99352.97;;;19.47;33.85
56630;BME280;42502;40.732;-74.254;2023-02-14T02:01:15;99353.78;;;19.51;33.92
56630;BME280;42502;40.732;-74.254;2023-02-14T02:03:21;99365.00;;;19.51;33.69
56630;BME280;42502;40.732;-74.254;2023-02-14T02:05:23;99351.34;;;19.46;34.02
56630;BME280;42502;40.732;-74.254;2023-02-14T02:07:26;99365.00;;;19.51;33.92
56630;BME280;42502;40.732;-74.254;2023-02-14T02:09:49;99366.13;;;19.46;33.83
56630;BME280;42502;40.732;-74.254;2023-02-14T02:11:52;99348.94;;;19.48;33.93
56630;BME280;42502;40.732;-74.254;2023-02-14T02:13:53;99354.56;;;19.48;34.04
56630;BME280;42502;40.732;-74.254;2023-02-14T02:18:40;99357.28;;;19.41;34.03
56630;BME280;42502;40.732;-74.254;2023-02-14T02:26:22;99370.53;;;19.44;34.01
56630;BME280;42502;40.732;-74.254;2023-02-14T02:30:24;99340.78;;;19.35;33.93
56630;BME280;42502;40.732;-74.254;2023-02-14T02:35:23;99352.84;;;19.40;33.81
56630;BME280;42502;40.732;-74.254;2023-02-14T02:42:48;99365.56;;;19.33;33.91
56630;BME280;42502;40.732;-74.254;2023-02-14T02:45:05;99370.78;;;19.35;34.00
56630;BME280;42502;40.732;-74.254;2023-02-14T02:55:43;99369.91;;;19.31;34.11
56630;BME280;42502;40.732;-74.254;2023-02-14T02:58:03;99378.28;;;19.27;34.19
56630;BME280;42502;40.732;-74.254;2023-02-14T03:00:09;99378.28;;;19.27;33.80
56630;BME280;42502;40.732;-74.254;2023-02-14T03:04:20;99385.06;;;19.26;34.02
56630;BME280;42502;40.732;-74.254;2023-02-14T03:06:39;99394.69;;;19.29;34.07
56630;BME280;42502;40.732;-74.254;2023-02-14T03:08:40;99385.75;;;19.20;34.07
56630;BME280;42502;40.732;-74.254;2023-02-14T03:10:41;99390.66;;;19.26;33.90
56630;BME280;42502;40.732;-74.254;2023-02-14T03:13:12;99399.06;;;19.26;33.88
56630;BME280;42502;40.732;-74.254;2023-02-14T03:20:22;99409.41;;;19.22;34.16
56630;BME280;42502;40.732;-74.254;2023-02-14T03:25:05;99425.81;;;19.24;34.13
56630;BME280;42502;40.732;-74.254;2023-02-14T03:27:21;99418.53;;;19.19;34.12
56630;BME280;42502;40.732;-74.254;2023-02-14T03:34:44;99439.75;;;19.20;34.13
56630;BME280;42502;40.732;-74.254;2023-02-14T03:39:21;99456.56;;;19.20;33.87
56630;BME280;42502;40.732;-74.254;2023-02-14T03:41:30;99451.31;;;19.18;34.10
56630;BME280;42502;40.732;-74.254;2023-02-14T03:43:47;99446.84;;;19.14;33.96
56630;BME280;42502;40.732;-74.254;2023-02-14T03:46:03;99440.38;;;19.10;33.92
56630;BME280;42502;40.732;-74.254;2023-02-14T03:48:08;99457.31;;;19.17;34.08
56630;BME280;42502;40.732;-74.254;2023-02-14T03:50:18;99465.69;;;19.17;34.04
56630;BME280;42502;40.732;-74.254;2023-02-14T03:52:20;99457.63;;;19.12;33.90
56630;BME280;42502;40.732;-74.254;2023-02-14T03:54:26;99459.59;;;19.11;33.80
56630;BME280;42502;40.732;-74.254;2023-02-14T03:58:37;99461.16;;;19.09;33.73
56630;BME280;42502;40.732;-74.254;2023-02-14T04:00:41;99466.03;;;19.12;33.94
56630;BME280;42502;40.732;-74.254;2023-02-14T04:02:57;99470.00;;;19.11;33.76
56630;BME280;42502;40.732;-74.254;2023-02-14T04:05:04;99475.59;;;19.11;33.87
56630;BME280;42502;40.732;-74.254;2023-02-14T04:07:15;99468.25;;;19.03;33.86
56630;BME280;42502;40.732;-74.254;2023-02-14T04:09:16;99485.16;;;19.10;33.77
56630;BME280;42502;40.732;-74.254;2023-02-14T04:11:17;99473.47;;;19.04;33.94
56630;BME280;42502;40.732;-74.254;2023-02-14T04:13:19;99476.66;;;19.03;33.65
56630;BME280;42502;40.732;-74.254;2023-02-14T04:15:20;99478.63;;;19.02;33.62
56630;BME280;42502;40.732;-74.254;2023-02-14T04:17:21;99501.91;;;19.06;33.71
56630;BME280;42502;40.732;-74.254;2023-02-14T04:19:40;99497.00;;;18.99;33.76
56630;BME280;42502;40.732;-74.254;2023-02-14T04:21:44;99497.00;;;18.99;33.81
56630;BME280;42502;40.732;-74.254;2023-02-14T04:23:50;99514.66;;;19.04;33.63
56630;BME280;42502;40.732;-74.254;2023-02-14T04:25:51;99521.44;;;19.03;33.92
56630;BME280;42502;40.732;-74.254;2023-02-14T04:27:55;99520.97;;;19.00;33.74
56630;BME280;42502;40.732;-74.254;2023-02-14T04:29:56;99526.91;;;18.95;33.72
56630;BME280;42502;40.732;-74.254;2023-02-14T04:31:57;99530.97;;;18.98;33.89
56630;BME280;42502;40.732;-74.254;2023-02-14T04:33:57;99539.78;;;19.00;33.64
56630;BME280;42502;40.732;-74.254;2023-02-14T04:35:59;99543.31;;;18.97;33.74
56630;BME280;42502;40.732;-74.254;2023-02-14T04:38:01;99550.53;;;18.98;33.79
56630;BME280;42502;40.732;-74.254;2023-02-14T04:40:03;99554.16;;;18.98;33.71
56630;BME280;42502;40.732;-74.254;2023-02-14T04:42:06;99553.25;;;18.94;33.58
56630;BME280;42502;40.732;-74.254;2023-02-14T04:44:07;99569.31;;;18.97;33.59
56630;BME280;42502;40.732;-74.254;2023-02-14T04:46:08;99560.84;;;18.94;33.78
56630;BME280;42502;40.732;-74.254;2023-02-14T04:48:09;99560.44;;;18.92;33.57
56630;BME280;42502;40.732;-74.254;2023-02-14T04:50:10;99579.28;;;18.95;33.76
56630;BME280;42502;40.732;-74.254;2023-02-14T04:52:11;99584.03;;;18.94;33.61
56630;BME280;42502;40.732;-74.254;2023-02-14T04:54:12;99584.03;;;18.94;33.62
56630;BME280;42502;40.732;-74.254;2023-02-14T04:56:13;99591.63;;;18.94;33.59
56630;BME280;42502;40.732;-74.254;2023-02-14T04:58:14;99575.88;;;18.86;33.70
56630;BME280;42502;40.732;-74.254;2023-02-14T05:00:15;99606.00;;;18.92;33.49
56630;BME280;42502;40.732;-74.254;2023-02-14T05:02:16;99605.19;;;18.92;33.46
56630;BME280;42502;40.732;-74.254;2023-02-14T05:04:22;99603.47;;;18.87;33.43
56630;BME280;42502;40.732;-74.254;2023-02-14T05:06:24;99611.13;;;18.90;33.52
56630;BME280;42502;40.732;-74.254;2023-02-14T05:08:25;99616.22;;;18.85;33.43
56630;BME280;42502;40.732;-74.254;2023-02-14T05:10:28;99624.69;;;18.88;33.54
56630;BME280;42502;40.732;-74.254;2023-02-14T05:12:29;99601.63;;;18.75;33.47
56630;BME280;42502;40.732;-74.254;2023-02-14T05:14:33;99628.66;;;18.87;33.47
56630;BME280;42502;40.732;-74.254;2023-02-14T05:16:34;99644.66;;;18.87;33.47
56630;BME280;42502;40.732;-74.254;2023-02-14T05:18:34;99644.66;;;18.87;33.55
56630;BME280;42502;40.732;-74.254;2023-02-14T05:20:38;99645.34;;;18.83;33.43
56630;BME280;42502;40.732;-74.254;2023-02-14T05:22:39;99653.41;;;18.85;33.30
56630;BME280;42502;40.732;-74.254;2023-02-14T05:24:40;99658.81;;;18.78;33.55
56630;BME280;42502;40.732;-74.254;2023-02-14T05:26:41;99662.09;;;18.80;33.40
56630;BME280;42502;40.732;-74.254;2023-02-14T05:28:42;99672.91;;;18.81;33.37
56630;BME280;42502;40.732;-74.254;2023-02-14T05:30:43;99666.78;;;18.76;33.57
56630;BME280;42502;40.732;-74.254;2023-02-14T05:32:43;99681.22;;;18.78;33.51
56630;BME280;42502;40.732;-74.254;2023-02-14T05:34:44;99684.47;;;18.80;33.42
56630;BME280;42502;40.732;-74.254;2023-02-14T05:36:45;99695.66;;;18.80;33.47
56630;BME280;42502;40.732;-74.254;2023-02-14T05:38:46;99694.75;;;18.76;33.22
56630;BME280;42502;40.732;-74.254;2023-02-14T05:40:47;99683.56;;;18.76;33.39
56630;BME280;42502;40.732;-74.254;2023-02-14T05:42:48;99698.66;;;18.71;33.21
56630;BME280;42502;40.732;-74.254;2023-02-14T05:44:49;99699.19;;;18.77;33.34
56630;BME280;42502;40.732;-74.254;2023-02-14T05:46:49;99709.56;;;18.76;33.25
56630;BME280;42502;40.732;-74.254;2023-02-14T05:48:50;99721.47;;;18.73;33.22
56630;BME280;42502;40.732;-74.254;2023-02-14T05:50:54;99720.31;;;18.74;33.54
56630;BME280;42502;40.732;-74.254;2023-02-14T05:52:55;99713.00;;;18.70;33.37
56630;BME280;42502;40.732;-74.254;2023-02-14T05:54:56;99731.44;;;18.71;33.20
56630;BME280;42502;40.732;-74.254;2023-02-14T05:56:57;99740.25;;;18.73;33.50
56630;BME280;42502;40.732;-74.254;2023-02-14T05:58:57;99744.22;;;18.72;33.51
56630;BME280;42502;40.732;-74.254;2023-02-14T06:01:01;99730.44;;;18.63;33.26
56630;BME280;42502;40.732;-74.254;2023-02-14T06:03:02;99748.22;;;18.71;33.28
56630;BME280;42502;40.732;-74.254;2023-02-14T06:05:03;99748.03;;;18.63;33.15
56630;BME280;42502;40.732;-74.254;2023-02-14T06:07:07;99765.38;;;18.69;33.20
56630;BME280;42502;40.732;-74.254;2023-02-14T06:09:08;99762.56;;;18.69;33.33
56630;BME280;42502;40.732;-74.254;2023-02-14T06:11:09;99760.94;;;18.68;33.39
56630;BME280;42502;40.732;-74.254;2023-02-14T06:13:10;99751.75;;;18.68;33.22
56630;BME280;42502;40.732;-74.254;2023-02-14T06:15:11;99768.34;;;18.60;33.25
56630;BME280;42502;40.732;-74.254;2023-02-14T06:17:12;99769.16;;;18.61;33.27
56630;BME280;42502;40.732;-74.254;2023-02-14T06:19:12;99765.19;;;18.62;33.21
56630;BME280;42502;40.732;-74.254;2023-02-14T06:21:13;99773.22;;;18.63;33.01
56630;BME280;42502;40.732;-74.254;2023-02-14T06:23:14;99775.09;;;18.59;33.29
56630;BME280;42502;40.732;-74.254;2023-02-14T06:25:15;99778.81;;;18.63;33.17
56630;BME280;42502;40.732;-74.254;2023-02-14T06:27:16;99788.38;;;18.62;33.07
56630;BME280;42502;40.732;-74.254;2023-02-14T06:29:17;99793.16;;;18.62;33.07
56630;BME280;42502;40.732;-74.254;2023-02-14T06:31:18;99794.31;;;18.61;33.03
56630;BME280;42502;40.732;-74.254;2023-02-14T06:33:19;99790.63;;;18.57;33.26
56630;BME280;42502;40.732;-74.254;2023-02-14T06:35:20;99817.06;;;18.59;33.02
56630;BME280;42502;40.732;-74.254;2023-02-14T06:37:21;99821.38;;;18.57;33.11
56630;BME280;42502;40.732;-74.254;2023-02-14T06:39:21;99821.84;;;18.59;32.95
56630;BME280;42502;40.732;-74.254;2023-02-14T06:41:22;99818.94;;;18.55;33.00
56630;BME280;42502;40.732;-74.254;2023-02-14T06:43:23;99825.63;;;18.51;33.16
56630;BME280;42502;40.732;-74.254;2023-02-14T06:45:24;99830.59;;;18.57;32.99
56630;BME280;42502;40.732;-74.254;2023-02-14T06:47:25;99820.41;;;18.49;33.20
56630;BME280;42502;40.732;-74.254;2023-02-14T06:49:26;99825.19;;;18.49;33.23
56630;BME280;42502;40.732;-74.254;2023-02-14T06:51:26;99835.09;;;18.46;33.16
56630;BME280;42502;40.732;-74.254;2023-02-14T06:53:27;99840.88;;;18.53;33.05
56630;BME280;42502;40.732;-74.254;2023-02-14T06:55:28;99854.06;;;18.53;33.06
56630;BME280;42502;40.732;-74.254;2023-02-14T06:57:31;99853.16;;;18.49;32.83
56630;BME280;42502;40.732;-74.254;2023-02-14T06:59:32;99860.03;;;18.51;33.00
56630;BME280;42502;40.732;-74.254;2023-02-14T07:01:33;99855.41;;;18.43;32.92
56630;BME280;42502;40.732;-74.254;2023-02-14T07:03:34;99873.44;;;18.45;32.96
56630;BME280;42502;40.732;-74.254;2023-02-14T07:05:35;99877.06;;;18.46;33.02
56630;BME280;42502;40.732;-74.254;2023-02-14T07:07:36;99877.53;;;18.48;32.78
56630;BME280;42502;40.732;-74.254;2023-02-14T07:09:37;99874.72;;;18.48;33.08
56630;BME280;42502;40.732;-74.254;2023-02-14T07:11:38;99882.66;;;18.46;32.85
56630;BME280;42502;40.732;-74.254;2023-02-14T07:13:39;99892.59;;;18.43;32.91
56630;BME280;42502;40.732;-74.254;2023-02-14T07:15:42;99889.44;;;18.45;33.02
56630;BME280;42502;40.732;-74.254;2023-02-14T07:17:46;99909.81;;;18.45;33.04
56630;BME280;42502;40.732;-74.254;2023-02-14T07:19:47;99909.72;;;18.42;32.81
56630;BME280;42502;40.732;-74.254;2023-02-14T07:21:47;99915.75;;;18.44;32.86
56630;BME280;42502;40.732;-74.254;2023-02-14T07:23:48;99899.97;;;18.36;32.88
56630;BME280;42502;40.732;-74.254;2023-02-14T07:25:49;99936.84;;;18.41;32.99
56630;BME280;42502;40.732;-74.254;2023-02-14T07:27:53;99928.13;;;18.43;32.90
56630;BME280;42502;40.732;-74.254;2023-02-14T07:29:57;99930.47;;;18.41;32.79
56630;BME280;42502;40.732;-74.254;2023-02-14T07:31:58;99933.25;;;18.41;32.89
56630;BME280;42502;40.732;-74.254;2023-02-14T07:33:58;99929.09;;;18.35;32.75
56630;BME280;42502;40.732;-74.254;2023-02-14T07:36:04;99938.41;;;18.39;33.07
56630;BME280;42502;40.732;-74.254;2023-02-14T07:38:05;99952.38;;;18.39;32.81
56630;BME280;42502;40.732;-74.254;2023-02-14T07:40:08;99949.94;;;18.37;32.96
56630;BME280;42502;40.732;-74.254;2023-02-14T07:42:09;99940.56;;;18.29;33.02
56630;BME280;42502;40.732;-74.254;2023-02-14T07:44:10;99951.09;;;18.36;32.90
56630;BME280;42502;40.732;-74.254;2023-02-14T07:46:14;99956.13;;;18.31;32.81
56630;BME280;42502;40.732;-74.254;2023-02-14T07:48:16;99961.50;;;18.36;33.04
56630;BME280;42502;40.732;-74.254;2023-02-14T07:50:18;99963.47;;;18.35;32.83
56630;BME280;42502;40.732;-74.254;2023-02-14T07:52:25;99960.13;;;18.29;32.96
56630;BME280;42502;40.732;-74.254;2023-02-14T07:54:26;99968.25;;;18.35;32.61
56630;BME280;42502;40.732;-74.254;2023-02-14T07:56:27;99975.00;;;18.34;32.77
56630;BME280;42502;40.732;-74.254;2023-02-14T07:58:34;99979.22;;;18.27;32.68
56630;BME280;42502;40.732;-74.254;2023-02-14T08:00:35;99984.44;;;18.29;33.04
56630;BME280;42502;40.732;-74.254;2023-02-14T08:02:36;99982.81;;;18.28;32.75
56630;BME280;42502;40.732;-74.254;2023-02-14T08:04:37;99984.00;;;18.27;33.04
56630;BME280;42502;40.732;-74.254;2023-02-14T08:06:41;99994.47;;;18.30;32.51
56630;BME280;42502;40.732;-74.254;2023-02-14T08:08:42;100000.44;;;18.28;32.72
56630;BME280;42502;40.732;-74.254;2023-02-14T08:10:43;99996.00;;;18.27;32.87
56630;BME280;42502;40.732;-74.254;2023-02-14T08:12:43;100002.75;;;18.26;32.58
56630;BME280;42502;40.732;-74.254;2023-02-14T08:15:00;99996.59;;;18.21;32.66
56630;BME280;42502;40.732;-74.254;2023-02-14T08:17:20;100011.03;;;18.23;32.59
56630;BME280;42502;40.732;-74.254;2023-02-14T08:19:21;100029.09;;;18.25;32.89
56630;BME280;42502;40.732;-74.254;2023-02-14T08:21:22;100030.03;;;18.17;32.83
56630;BME280;42502;40.732;-74.254;2023-02-14T08:23:26;100005.50;;;18.10;32.79
56630;BME280;42502;40.732;-74.254;2023-02-14T08:25:27;100014.63;;;18.23;32.98
56630;BME280;42502;40.732;-74.254;2023-02-14T08:27:28;100032.47;;;18.19;32.84
56630;BME280;42502;40.732;-74.254;2023-02-14T08:29:29;100043.78;;;18.22;32.91
56630;BME280;42502;40.732;-74.254;2023-02-14T08:31:30;100028.78;;;18.15;32.56
56630;BME280;42502;40.732;-74.254;2023-02-14T08:33:31;100038.69;;;18.12;32.66
56630;BME280;42502;40.732;-74.254;2023-02-14T08:35:35;100048.91;;;18.20;32.74
56630;BME280;42502;40.732;-74.254;2023-02-14T08:37:36;100043.56;;;18.15;32.45
56630;BME280;42502;40.732;-74.254;2023-02-14T08:39:38;100062.06;;;18.20;32.88
56630;BME280;42502;40.732;-74.254;2023-02-14T08:41:39;100076.41;;;18.18;32.56
56630;BME280;42502;40.732;-74.254;2023-02-14T08:43:40;100067.22;;;18.18;32.77
56630;BME280;42502;40.732;-74.254;2023-02-14T08:45:41;100049.41;;;18.10;32.62
56630;BME280;42502;40.732;-74.254;2023-02-14T08:47:45;100067.09;;;18.14;32.66
56630;BME280;42502;40.732;-74.254;2023-02-14T08:49:48;100079.91;;;18.15;32.57
56630;BME280;42502;40.732;-74.254;2023-02-14T08:51:49;100078.25;;;18.14;32.78
56630;BME280;42502;40.732;-74.254;2023-02-14T08:53:52;100076.53;;;18.09;32.66
56630;BME280;42502;40.732;-74.254;2023-02-14T08:55:54;100073.63;;;18.06;32.59
56630;BME280;42502;40.732;-74.254;2023-02-14T08:57:55;100079.81;;;18.11;32.84
56630;BME280;42502;40.732;-74.254;2023-02-14T08:59:57;100086.19;;;18.12;32.87
56630;BME280;42502;40.732;-74.254;2023-02-14T09:01:58;100089.34;;;18.10;32.88
56630;BME280;42502;40.732;-74.254;2023-02-14T09:04:02;100094.13;;;18.10;32.83
56630;BME280;42502;40.732;-74.254;2023-02-14T09:06:08;100097.72;;;18.10;32.61
56630;BME280;42502;40.732;-74.254;2023-02-14T09:08:09;100103.69;;;18.09;32.63
56630;BME280;42502;40.732;-74.254;2023-02-14T09:10:13;100101.47;;;18.02;32.41
56630;BME280;42502;40.732;-74.254;2023-02-14T09:12:13;100120.78;;;18.07;32.44
56630;BME280;42502;40.732;-74.254;2023-02-14T09:14:14;100129.19;;;18.07;32.83
56630;BME280;42502;40.732;-74.254;2023-02-14T09:16:16;100143.50;;;18.06;32.66
56630;BME280;42502;40.732;-74.254;2023-02-14T09:18:17;100142.69;;;18.05;32.61
56630;BME280;42502;40.732;-74.254;2023-02-14T09:20:18;100136.16;;;18.01;32.43
56630;BME280;42502;40.732;-74.254;2023-02-14T09:22:22;100143.28;;;17.99;32.66
56630;BME280;42502;40.732;-74.254;2023-02-14T09:24:22;100168.22;;;18.04;32.82
56630;BME280;42502;40.732;-74.254;2023-02-14T09:26:23;100160.88;;;17.99;32.50
56630;BME280;42502;40.732;-74.254;2023-02-14T09:28:24;100166.56;;;18.03;32.55
56630;BME280;42502;40.732;-74.254;2023-02-14T09:30:28;100168.56;;;18.02;32.47
56630;BME280;42502;40.732;-74.254;2023-02-14T09:32:32;100159.94;;;17.95;32.59
56630;BME280;42502;40.732;-74.254;2023-02-14T09:34:38;100167.97;;;17.97;32.56
56630;BME280;42502;40.732;-74.254;2023-02-14T09:36:39;100170.41;;;17.98;32.44
56630;BME280;42502;40.732;-74.254;2023-02-14T09:38:43;100169.47;;;17.94;32.61
56630;BME280;42502;40.732;-74.254;2023-02-14T09:40:45;100181.59;;;17.98;32.87
56630;BME280;42502;40.732;-74.254;2023-02-14T09:43:10;100202.31;;;17.97;32.37
56630;BME280;42502;40.732;-74.254;2023-02-14T09:45:28;100201.50;;;17.97;32.75
56630;BME280;42502;40.732;-74.254;2023-02-14T09:49:50;100197.03;;;17.83;32.65
56630;BME280;42502;40.732;-74.254;2023-02-14T09:51:53;100215.81;;;17.95;32.46
56630;BME280;42502;40.732;-74.254;2023-02-14T09:54:08;100223.72;;;17.93;32.62
56630;BME280;42502;40.732;-74.254;2023-02-14T09:56:23;100220.13;;;17.92;32.61
56630;BME280;42502;40.732;-74.254;2023-02-14T09:58:35;100205.16;;;17.88;32.61
56630;BME280;42502;40.732;-74.254;2023-02-14T10:01:44;100228.41;;;17.89;32.53
56630;BME280;42502;40.732;-74.254;2023-02-14T10:05:37;100231.00;;;17.85;32.49
56630;BME280;42502;40.732;-74.254;2023-02-14T10:07:49;100247.09;;;17.88;32.47
56630;BME280;42502;40.732;-74.254;2023-02-14T10:14:34;100239.41;;;17.85;32.26
56630;BME280;42502;40.732;-74.254;2023-02-14T10:17:05;100240.94;;;17.83;32.86
56630;BME280;42502;40.732;-74.254;2023-02-14T10:21:31;100242.88;;;17.82;32.37
56630;BME280;42502;40.732;-74.254;2023-02-14T10:23:40;100250.81;;;17.80;32.61
56630;BME280;42502;40.732;-74.254;2023-02-14T10:25:59;100259.53;;;17.79;32.62
56630;BME280;42502;40.732;-74.254;2023-02-14T10:28:01;100257.09;;;17.77;32.54
56630;BME280;42502;40.732;-74.254;2023-02-14T10:30:12;100262.69;;;17.77;32.40
56630;BME280;42502;40.732;-74.254;2023-02-14T10:32:18;100260.69;;;17.77;32.28
56630;BME280;42502;40.732;-74.254;2023-02-14T10:41:54;100295.25;;;17.73;32.71
56630;BME280;42502;40.732;-74.254;2023-02-14T10:44:00;100296.09;;;17.73;32.50
56630;BME280;42502;40.732;-74.254;2023-02-14T10:51:18;100311.56;;;17.71;32.20
56630;BME280;42502;40.732;-74.254;2023-02-14T10:55:48;100322.59;;;17.67;32.53
56630;BME280;42502;40.732;-74.254;2023-02-14T10:57:52;100310.59;;;17.67;32.49
56630;BME280;42502;40.732;-74.254;2023-02-14T11:00:06;100289.50;;;17.57;32.43
56630;BME280;42502;40.732;-74.254;2023-02-14T11:02:12;100307.34;;;17.65;32.26
56630;BME280;42502;40.732;-74.254;2023-02-14T11:04:15;100311.28;;;17.64;32.49
56630;BME280;42502;40.732;-74.254;2023-02-14T11:06:16;100303.13;;;17.58;32.25
56630;BME280;42502;40.732;-74.254;2023-02-14T11:08:28;100333.63;;;17.64;32.65
56630;BME280;42502;40.732;-74.254;2023-02-14T11:10:33;100304.97;;;17.54;32.44
56630;BME280;42502;40.732;-74.254;2023-02-14T11:12:36;100336.75;;;17.62;32.24
56630;BME280;42502;40.732;-74.254;2023-02-14T11:14:40;100336.63;;;17.58;32.41
56630;BME280;42502;40.732;-74.254;2023-02-14T11:16:41;100349.66;;;17.54;32.20
56630;BME280;42502;40.732;-74.254;2023-02-14T11:18:42;100365.84;;;17.61;32.07
56630;BME280;42502;40.732;-74.254;2023-02-14T11:21:02;100379.69;;;17.57;32.22
56630;BME280;42502;40.732;-74.254;2023-02-14T11:23:17;100392.50;;;17.58;32.45
56630;BME280;42502;40.732;-74.254;2023-02-14T11:25:24;100397.25;;;17.58;32.46
56630;BME280;42502;40.732;-74.254;2023-02-14T11:27:26;100408.44;;;17.58;32.23
56630;BME280;42502;40.732;-74.254;2023-02-14T11:31:33;100414.34;;;17.56;32.54
56630;BME280;42502;40.732;-74.254;2023-02-14T11:33:39;100429.16;;;17.57;32.37
56630;BME280;42502;40.732;-74.254;2023-02-14T11:35:49;100413.94;;;17.46;32.50
56630;BME280;42502;40.732;-74.254;2023-02-14T11:37:55;100432.13;;;17.52;32.41
56630;BME280;42502;40.732;-74.254;2023-02-14T11:39:58;100432.81;;;17.49;32.06
56630;BME280;42502;40.732;-74.254;2023-02-14T11:42:02;100428.53;;;17.51;32.23
56630;BME280;42502;40.732;-74.254;2023-02-14T11:44:17;100428.88;;;17.50;32.29
56630;BME280;42502;40.732;-74.254;2023-02-14T11:48:29;100439.91;;;17.46;32.31
56630;BME280;42502;40.732;-74.254;2023-02-14T11:50:33;100439.25;;;17.49;32.13
56630;BME280;42502;40.732;-74.254;2023-02-14T11:52:48;100441.53;;;17.47;32.33
56630;BME280;42502;40.732;-74.254;2023-02-14T11:54:49;100450.75;;;17.48;32.07
56630;BME280;42502;40.732;-74.254;2023-02-14T11:56:53;100442.41;;;17.39;32.05
56630;BME280;42502;40.732;-74.254;2023-02-14T11:59:02;100452.22;;;17.45;32.29